Time;durP1;ratioP1;P1;durP2;ratioP2;P2;SDS_P1;SDS_P2;PMS_P1;PMS_P2;Temp;Humidity;BMP_temperature;BMP_pressure;BME280_temperature;BME280_humidity;BME280_pressure;Samples;Min_cycle;Max_cycle;Signal;HPM_P1;HPM_P2
2024/01/30 00:01:10;;;;;;;6.13;5.53;;;;;;;1.80;100.00;98114.78;5112725;28;20534;-60
2024/01/30 00:03:37;;;;;;;6.00;5.50;;;;;;;1.77;100.00;98111.44;5112878;28;20210;-59
2024/01/30 00:06:04;;;;;;;7.43;5.53;;;;;;;1.78;100.00;98119.19;5113053;28;20284;-60
2024/01/30 00:08:32;;;;;;;6.43;5.80;;;;;;;1.81;100.00;98118.22;5112376;28;20211;-60
2024/01/30 00:10:59;;;;;;;8.63;6.37;;;;;;;1.77;100.00;98101.00;5112273;28;20229;-60
2024/01/30 00:13:26;;;;;;;6.50;5.73;;;;;;;1.76;100.00;98107.13;5112528;27;20208;-59
2024/01/30 00:15:52;;;;;;;6.63;5.33;;;;;;;1.81;100.00;98102.56;5112473;28;20306;-60
2024/01/30 00:18:19;;;;;;;6.20;5.67;;;;;;;1.77;100.00;98101.84;5112640;28;20201;-60
2024/01/30 00:20:47;;;;;;;7.33;6.47;;;;;;;1.76;100.00;98099.28;5112785;28;20193;-59
2024/01/30 00:23:14;;;;;;;7.23;6.50;;;;;;;1.77;100.00;98099.22;5112685;28;20201;-59
2024/01/30 00:25:42;;;;;;;7.30;6.07;;;;;;;1.74;100.00;98107.16;5112186;28;20197;-60
2024/01/30 00:28:09;;;;;;;7.13;6.43;;;;;;;1.77;100.00;98095.78;5112738;27;20205;-60
2024/01/30 00:30:36;;;;;;;7.23;6.53;;;;;;;1.66;100.00;98108.34;5112072;28;20704;-60
2024/01/30 00:33:02;;;;;;;9.10;6.27;;;;;;;1.66;100.00;98106.59;5112198;28;20225;-59
2024/01/30 00:35:30;;;;;;;7.73;6.23;;;;;;;1.66;100.00;98104.00;5112549;28;20207;-60
2024/01/30 00:37:58;;;;;;;6.67;6.07;;;;;;;1.61;100.00;98105.03;5111832;28;20205;-60
2024/01/30 00:40:24;;;;;;;6.03;5.53;;;;;;;1.59;100.00;98112.94;5112172;28;20201;-60
2024/01/30 00:42:54;;;;;;;6.30;5.70;;;;;;;1.61;100.00;98100.69;5111847;28;20207;-60
2024/01/30 00:45:22;;;;;;;6.30;5.47;;;;;;;1.63;100.00;98108.47;5112758;28;20205;-60
2024/01/30 00:47:49;;;;;;;5.93;5.43;;;;;;;1.57;100.00;98104.28;5112032;28;20207;-59
2024/01/30 00:50:16;;;;;;;6.63;5.27;;;;;;;1.59;100.00;98110.31;5111347;28;20229;-58
2024/01/30 00:52:45;;;;;;;5.57;5.07;;;;;;;1.61;100.00;98108.50;5112019;28;20201;-59
2024/01/30 00:55:12;;;;;;;6.03;5.43;;;;;;;1.64;100.00;98108.38;5121134;28;20269;-60
2024/01/30 00:57:38;;;;;;;8.70;5.80;;;;;;;1.69;100.00;98109.09;5128726;28;20193;-59
2024/01/30 01:00:09;;;;;;;6.60;5.80;;;;;;;1.52;100.00;98107.03;5125584;28;20209;-59
2024/01/30 01:02:35;;;;;;;8.53;5.97;;;;;;;1.48;100.00;98102.00;5114789;28;20234;-59
2024/01/30 01:05:02;;;;;;;6.47;5.87;;;;;;;1.51;100.00;98109.72;5114812;28;20224;-59
2024/01/30 01:07:29;;;;;;;6.13;5.53;;;;;;;1.49;100.00;98108.91;5112322;27;20301;-59
2024/01/30 01:09:55;;;;;;;6.23;5.47;;;;;;;1.60;100.00;98106.78;5111277;28;20633;-60
2024/01/30 01:12:22;;;;;;;6.57;5.90;;;;;;;1.60;100.00;98108.53;5111511;28;20217;-59
2024/01/30 01:14:48;;;;;;;6.00;5.50;;;;;;;1.52;100.00;98111.44;5111417;28;20211;-59
2024/01/30 01:17:18;;;;;;;5.87;5.37;;;;;;;1.52;100.00;98107.97;5110828;28;20215;-61
2024/01/30 01:19:45;;;;;;;5.97;5.30;;;;;;;1.48;100.00;98110.69;5110702;28;20622;-59
2024/01/30 01:22:11;;;;;;;9.50;5.37;;;;;;;1.47;100.00;98102.91;5112599;28;20292;-59
2024/01/30 01:24:38;;;;;;;5.73;5.13;;;;;;;1.51;100.00;98114.94;5110994;28;20212;-59
2024/01/30 01:27:06;;;;;;;9.77;5.30;;;;;;;1.45;100.00;98104.72;5112742;28;20232;-59
2024/01/30 01:29:33;;;;;;;5.93;5.43;;;;;;;1.46;100.00;98112.47;5111857;28;20205;-59
2024/01/30 01:31:59;;;;;;;6.37;5.77;;;;;;;1.47;100.00;98102.91;5110926;28;20699;-58
2024/01/30 01:34:27;;;;;;;6.13;5.23;;;;;;;1.53;100.00;98113.13;5111021;28;20209;-59
2024/01/30 01:36:55;;;;;;;6.17;5.57;;;;;;;1.51;100.00;98112.31;5111391;28;20217;-59
2024/01/30 01:39:21;;;;;;;6.03;5.27;;;;;;;1.54;100.00;98111.38;5110772;28;20197;-59
2024/01/30 01:41:49;;;;;;;7.50;5.90;;;;;;;1.44;100.00;98108.22;5111378;28;20220;-59
2024/01/30 01:44:15;;;;;;;6.90;5.40;;;;;;;1.42;100.00;98107.41;5111260;28;20198;-59
2024/01/30 01:46:42;;;;;;;6.23;5.63;;;;;;;1.41;100.00;98106.59;5110801;28;20238;-59
2024/01/30 01:49:09;;;;;;;5.77;5.27;;;;;;;1.36;100.00;98108.47;5110661;28;20205;-59
2024/01/30 01:51:37;;;;;;;6.13;5.53;;;;;;;1.40;100.00;98106.63;5111064;28;20221;-58
2024/01/30 01:54:05;;;;;;;5.90;5.27;;;;;;;1.38;100.00;98103.22;5110902;28;20291;-60
2024/01/30 01:56:32;;;;;;;5.23;4.73;;;;;;;1.39;100.00;98110.13;5110829;28;20219;-60
2024/01/30 01:59:02;;;;;;;6.37;5.17;;;;;;;1.34;100.00;98101.63;5111351;28;20200;-59
2024/01/30 02:01:29;;;;;;;5.67;5.17;;;;;;;1.35;100.00;98092.88;5111186;28;20225;-59
2024/01/30 02:03:56;;;;;;;5.97;5.33;;;;;;;1.31;100.00;98096.50;5110868;28;20213;-59
2024/01/30 02:06:26;;;;;;;7.07;6.30;;;;;;;1.32;100.00;98093.84;5110721;28;20197;-59
2024/01/30 02:08:54;;;;;;;5.77;5.17;;;;;;;1.27;100.00;98095.78;5111172;28;20193;-59
2024/01/30 02:11:22;;;;;;;6.93;6.07;;;;;;;1.24;100.00;98103.66;5110709;28;20229;-59
2024/01/30 02:13:48;;;;;;;7.13;5.77;;;;;;;1.34;100.00;98097.25;5111409;28;20202;-60
2024/01/30 02:16:15;;;;;;;5.37;4.87;;;;;;;1.27;100.00;98098.38;5114784;28;20203;-59
2024/01/30 02:18:45;;;;;;;6.37;5.77;;;;;;;1.28;100.00;98107.88;5114734;28;20201;-60
2024/01/30 02:21:15;;;;;;;6.47;5.07;;;;;;;1.23;100.00;98099.38;5114488;28;20212;-59
2024/01/30 02:23:44;;;;;;;6.00;5.40;;;;;;;1.25;100.00;98101.91;5114830;27;20216;-60
2024/01/30 02:26:11;;;;;;;5.00;4.60;;;;;;;1.22;100.00;98102.00;5114828;28;20215;-60
2024/01/30 02:28:38;;;;;;;5.63;5.13;;;;;;;1.29;100.00;98096.56;5114896;27;20220;-59
2024/01/30 02:31:05;;;;;;;5.60;5.00;;;;;;;1.27;100.00;98100.13;5113890;28;20678;-58
2024/01/30 02:33:34;;;;;;;5.77;5.17;;;;;;;1.31;100.00;98101.72;5114125;28;20211;-59
2024/01/30 02:36:00;;;;;;;6.20;5.43;;;;;;;1.26;100.00;98099.25;5114418;28;20205;-61
2024/01/30 02:38:29;;;;;;;6.50;5.83;;;;;;;1.27;100.00;98105.34;5114984;28;20559;-59
2024/01/30 02:40:56;;;;;;;6.00;5.40;;;;;;;1.28;100.00;98104.41;5113938;27;20590;-58
2024/01/30 02:43:22;;;;;;;5.30;4.87;;;;;;;1.25;100.00;98107.13;5114853;28;20212;-60
2024/01/30 02:45:49;;;;;;;6.40;5.70;;;;;;;1.25;100.00;98107.13;5114032;28;20206;-59
2024/01/30 02:48:16;;;;;;;6.17;5.53;;;;;;;1.25;100.00;98107.97;5114470;28;20629;-60
2024/01/30 02:50:42;;;;;;;7.03;6.33;;;;;;;1.25;100.00;98107.13;5113854;28;20537;-59
2024/01/30 02:53:09;;;;;;;5.90;5.33;;;;;;;1.24;100.00;98101.06;5114191;28;20610;-60
2024/01/30 02:55:37;;;;;;;6.20;5.70;;;;;;;1.20;100.00;98106.44;5113090;28;20626;-60
2024/01/30 02:58:04;;;;;;;6.53;5.60;;;;;;;1.23;100.00;98101.13;5137453;28;20207;-59
2024/01/30 03:00:31;;;;;;;7.53;5.80;;;;;;;1.23;100.00;98098.50;5138481;28;20236;-59
2024/01/30 03:02:57;;;;;;;6.23;5.63;;;;;;;1.23;100.00;98094.16;5138208;28;20283;-59
2024/01/30 03:05:24;;;;;;;6.30;5.70;;;;;;;1.16;100.00;98089.19;5136244;28;20240;-60
2024/01/30 03:07:51;;;;;;;6.07;5.47;;;;;;;1.17;100.00;98088.31;5115652;28;20906;-59
2024/01/30 03:10:17;;;;;;;6.50;5.60;;;;;;;1.10;100.00;98087.63;5115642;28;20213;-60
2024/01/30 03:12:45;;;;;;;6.13;5.37;;;;;;;1.08;100.00;98083.38;5126417;27;20296;-60
2024/01/30 03:15:12;;;;;;;7.43;5.30;;;;;;;1.11;100.00;98088.47;5124288;28;20225;-60
2024/01/30 03:17:38;;;;;;;6.03;5.33;;;;;;;1.10;100.00;98089.41;5130085;28;20277;-59
2024/01/30 03:20:06;;;;;;;6.63;5.93;;;;;;;1.14;100.00;98086.63;5129348;28;20208;-59
2024/01/30 03:22:33;;;;;;;6.87;5.83;;;;;;;1.12;100.00;98083.22;5120076;28;20637;-58
2024/01/30 03:25:02;;;;;;;6.87;5.93;;;;;;;1.12;100.00;98078.03;5113752;28;20197;-60
2024/01/30 03:27:29;;;;;;;7.27;6.20;;;;;;;1.11;100.00;98080.66;5113345;28;20196;-60
2024/01/30 03:29:56;;;;;;;6.10;5.50;;;;;;;1.09;100.00;98085.94;5114290;28;20290;-59
2024/01/30 03:32:22;;;;;;;6.43;5.50;;;;;;;1.05;100.00;98078.28;5112902;28;20221;-60
2024/01/30 03:34:49;;;;;;;6.20;5.33;;;;;;;1.11;100.00;98070.25;5112911;28;20205;-60
2024/01/30 03:37:16;;;;;;;6.27;5.67;;;;;;;1.11;100.00;98081.53;5113349;28;20219;-59
2024/01/30 03:39:42;;;;;;;7.40;5.90;;;;;;;1.14;100.00;98085.78;5112849;28;20201;-60
2024/01/30 03:42:09;;;;;;;8.57;6.27;;;;;;;1.12;100.00;98080.63;5114725;27;20296;-60
2024/01/30 03:44:36;;;;;;;8.00;6.47;;;;;;;1.07;100.00;98079.06;5113599;28;20205;-60
2024/01/30 03:47:04;;;;;;;6.40;5.80;;;;;;;1.07;100.00;98081.66;5114003;28;20205;-60
2024/01/30 03:49:33;;;;;;;7.17;6.33;;;;;;;1.08;100.00;98079.03;5113589;28;20204;-60
2024/01/30 03:52:00;;;;;;;6.97;6.27;;;;;;;1.05;100.00;98083.47;5114003;28;20227;-60
2024/01/30 03:54:26;;;;;;;7.47;6.77;;;;;;;1.10;100.00;98081.59;5113386;28;20209;-59
2024/01/30 03:56:53;;;;;;;7.57;6.20;;;;;;;1.10;100.00;98081.59;5113964;28;20205;-58
2024/01/30 03:59:23;;;;;;;7.20;6.50;;;;;;;1.05;100.00;98081.72;5113601;28;20212;-61
2024/01/30 04:01:50;;;;;;;7.10;6.33;;;;;;;1.06;100.00;98079.97;5112829;28;20233;-58
2024/01/30 04:04:18;;;;;;;8.10;6.63;;;;;;;1.06;100.00;98080.84;5112621;28;20201;-60
2024/01/30 04:06:45;;;;;;;7.00;6.27;;;;;;;1.03;100.00;98074.88;5112994;28;20197;-60
2024/01/30 04:09:13;;;;;;;7.40;6.60;;;;;;;1.18;100.00;98079.56;5112006;28;20284;-58
2024/01/30 04:11:39;;;;;;;9.10;6.40;;;;;;;1.06;100.00;98090.41;5112802;28;20225;-59
2024/01/30 04:14:06;;;;;;;7.20;6.10;;;;;;;1.09;100.00;98087.69;5112868;28;20193;-60
2024/01/30 04:16:32;;;;;;;7.37;6.13;;;;;;;1.05;100.00;98083.47;5112690;28;20219;-59
2024/01/30 04:18:59;;;;;;;6.60;6.00;;;;;;;1.07;100.00;98090.34;5112172;28;20230;-60
2024/01/30 04:21:27;;;;;;;7.60;5.77;;;;;;;1.11;100.00;98089.34;5111709;28;20641;-60
2024/01/30 04:23:54;;;;;;;7.43;6.50;;;;;;;1.16;100.00;98084.00;5112028;28;20664;-58
2024/01/30 04:26:20;;;;;;;6.30;5.70;;;;;;;1.05;100.00;98079.13;5111792;27;20201;-60
2024/01/30 04:28:47;;;;;;;6.27;5.67;;;;;;;1.00;100.00;98092.28;5112183;28;20214;-60
2024/01/30 04:31:14;;;;;;;6.40;5.80;;;;;;;1.02;100.00;98088.78;5111794;28;20201;-60
2024/01/30 04:33:41;;;;;;;7.23;6.03;;;;;;;0.99;100.00;98082.75;5112036;28;20629;-60
2024/01/30 04:36:11;;;;;;;7.33;6.50;;;;;;;1.03;100.00;98087.91;5112195;28;20197;-60
2024/01/30 04:38:39;;;;;;;7.30;6.53;;;;;;;1.01;100.00;98085.34;5111794;28;20205;-59
2024/01/30 04:41:08;;;;;;;6.50;5.90;;;;;;;0.91;100.00;98087.38;5111053;28;20568;-60
2024/01/30 04:43:34;;;;;;;7.73;5.77;;;;;;;0.93;100.00;98085.56;5111676;28;20205;-60
2024/01/30 04:46:01;;;;;;;7.27;6.10;;;;;;;0.96;100.00;98089.81;5111709;28;20204;-62
2024/01/30 04:48:28;;;;;;;7.37;6.67;;;;;;;1.04;100.00;98086.97;5112085;28;20308;-59
2024/01/30 04:50:55;;;;;;;6.47;5.87;;;;;;;0.93;100.00;98085.56;5111888;27;20223;-60
2024/01/30 04:53:22;;;;;;;7.93;6.07;;;;;;;0.91;100.00;98082.19;5111842;28;20242;-60
2024/01/30 04:55:50;;;;;;;8.40;6.47;;;;;;;0.94;100.00;98095.09;5111636;28;20208;-59
2024/01/30 04:58:16;;;;;;;8.30;6.30;;;;;;;0.99;100.00;98090.59;5111993;28;20207;-60
2024/01/30 05:00:45;;;;;;;9.37;6.37;;;;;;;0.99;100.00;98085.38;5111180;27;20228;-60
2024/01/30 05:03:12;;;;;;;6.87;6.17;;;;;;;0.96;100.00;98093.28;5111028;28;20695;-60
2024/01/30 05:05:39;;;;;;;6.97;6.37;;;;;;;0.99;100.00;98093.19;5111738;27;20656;-59
2024/01/30 05:08:06;;;;;;;6.53;5.90;;;;;;;0.93;100.00;98096.00;5112006;28;20211;-60
2024/01/30 05:10:32;;;;;;;7.43;6.30;;;;;;;0.92;100.00;98096.88;5111446;28;20220;-60
2024/01/30 05:13:00;;;;;;;7.27;6.57;;;;;;;0.89;100.00;98089.19;5111408;28;20462;-59
2024/01/30 05:15:27;;;;;;;7.43;6.50;;;;;;;0.97;100.00;98102.81;5111265;28;20193;-60
2024/01/30 05:17:54;;;;;;;7.17;6.47;;;;;;;0.94;100.00;98102.06;5111421;28;20644;-59
2024/01/30 05:20:21;;;;;;;7.57;6.87;;;;;;;0.95;100.00;98103.78;5111390;28;20576;-59
2024/01/30 05:22:47;;;;;;;7.23;6.53;;;;;;;0.91;100.00;98107.38;5111124;28;20555;-58
2024/01/30 05:25:14;;;;;;;6.33;5.73;;;;;;;0.94;100.00;98104.66;5110862;28;20205;-61
2024/01/30 05:27:42;;;;;;;10.33;6.53;;;;;;;0.90;100.00;98109.13;5114259;28;20596;-60
2024/01/30 05:30:11;;;;;;;7.57;6.87;;;;;;;0.87;100.00;98108.38;5122550;28;20257;-61
2024/01/30 05:32:38;;;;;;;8.20;6.53;;;;;;;0.86;100.00;98110.09;5126053;28;20239;-60
2024/01/30 05:35:05;;;;;;;8.63;6.70;;;;;;;0.93;100.00;98113.38;5127806;28;20220;-60
2024/01/30 05:37:32;;;;;;;7.73;6.40;;;;;;;1.00;100.00;98114.88;5118659;28;20208;-60
2024/01/30 05:39:59;;;;;;;7.30;6.57;;;;;;;0.93;100.00;98115.97;5111551;28;20207;-61
2024/01/30 05:42:25;;;;;;;7.13;6.43;;;;;;;0.90;100.00;98116.94;5112447;28;20209;-59
2024/01/30 05:44:53;;;;;;;7.10;6.40;;;;;;;0.89;100.00;98125.63;5113541;28;20215;-57
2024/01/30 05:47:23;;;;;;;9.00;6.67;;;;;;;0.86;100.00;98128.34;5112502;28;20197;-59
2024/01/30 05:49:49;;;;;;;7.53;5.97;;;;;;;0.89;100.00;98120.44;5113453;28;20212;-59
2024/01/30 05:52:17;;;;;;;7.47;6.67;;;;;;;0.97;100.00;98118.44;5115598;28;20221;-60
2024/01/30 05:54:44;;;;;;;9.20;6.47;;;;;;;0.89;100.00;98117.81;5114974;28;20207;-59
2024/01/30 05:57:10;;;;;;;7.07;6.37;;;;;;;0.88;100.00;98116.13;5115593;27;20285;-59
2024/01/30 05:59:37;;;;;;;7.83;6.57;;;;;;;0.82;100.00;98118.06;5117116;28;20296;-61
2024/01/30 06:02:04;;;;;;;7.60;6.90;;;;;;;0.79;100.00;98124.22;5118557;28;20228;-60
2024/01/30 06:04:32;;;;;;;7.67;6.93;;;;;;;0.91;100.00;98129.06;5121161;28;20304;-59
2024/01/30 06:07:01;;;;;;;8.83;6.93;;;;;;;0.95;100.00;98127.22;5120658;28;20594;-58
2024/01/30 06:09:28;;;;;;;7.47;6.60;;;;;;;0.94;100.00;98128.09;5114653;28;20196;-60
2024/01/30 06:11:55;;;;;;;8.60;6.60;;;;;;;0.92;100.00;98129.91;5114826;27;20197;-60
2024/01/30 06:14:21;;;;;;;7.60;6.80;;;;;;;1.04;100.00;98126.06;5115032;28;20205;-57
2024/01/30 06:16:49;;;;;;;7.93;6.50;;;;;;;1.09;100.00;98126.78;5114654;28;20629;-59
2024/01/30 06:19:16;;;;;;;8.00;7.20;;;;;;;1.12;100.00;98127.53;5114413;28;20276;-59
2024/01/30 06:21:44;;;;;;;11.30;7.50;;;;;;;1.12;100.00;98129.28;5114386;28;20216;-59
2024/01/30 06:24:10;;;;;;;8.20;7.27;;;;;;;1.05;100.00;98136.44;5114084;27;20196;-59
2024/01/30 06:26:37;;;;;;;13.00;7.27;;;;;;;1.02;100.00;98131.34;5114330;27;20205;-57
2024/01/30 06:29:04;;;;;;;11.80;7.30;;;;;;;1.00;100.00;98143.53;5112712;28;20209;-57
2024/01/30 06:31:31;;;;;;;8.03;6.73;;;;;;;1.04;100.00;98139.06;5113296;28;20312;-59
2024/01/30 06:33:57;;;;;;;8.13;6.87;;;;;;;1.00;100.00;98143.53;5113755;28;20216;-59
2024/01/30 06:36:24;;;;;;;8.43;7.57;;;;;;;1.01;100.00;98140.03;5113570;28;20209;-59
2024/01/30 06:38:52;;;;;;;13.30;8.07;;;;;;;1.01;100.00;98134.81;5113543;28;20205;-60
2024/01/30 06:41:18;;;;;;;8.73;7.50;;;;;;;0.95;100.00;98141.09;5113010;28;20691;-59
2024/01/30 06:43:46;;;;;;;8.03;7.23;;;;;;;0.96;100.00;98145.38;5113575;28;20201;-59
2024/01/30 06:46:12;;;;;;;10.43;7.90;;;;;;;1.06;100.00;98137.28;5113648;28;20209;-60
2024/01/30 06:48:40;;;;;;;8.23;7.30;;;;;;;1.02;100.00;98148.72;5113832;28;20201;-58
2024/01/30 06:51:06;;;;;;;8.73;6.97;;;;;;;1.05;100.00;98144.25;5113934;28;20200;-58
2024/01/30 06:53:33;;;;;;;8.47;7.30;;;;;;;1.10;100.00;98149.31;5114102;28;20349;-59
2024/01/30 06:56:01;;;;;;;8.97;7.20;;;;;;;1.03;100.00;98151.25;5112737;28;20647;-60
2024/01/30 06:58:27;;;;;;;8.43;6.93;;;;;;;1.08;100.00;98156.31;5113912;28;20281;-59
2024/01/30 07:00:56;;;;;;;7.83;7.03;;;;;;;1.03;100.00;98155.63;5113176;28;20239;-59
2024/01/30 07:03:22;;;;;;;10.47;7.20;;;;;;;0.99;100.00;98158.31;5113671;28;20522;-58
2024/01/30 07:05:49;;;;;;;9.23;6.90;;;;;;;1.04;100.00;98154.72;5113789;28;21305;-59
2024/01/30 07:08:17;;;;;;;11.27;8.20;;;;;;;1.07;100.00;98159.81;5113117;28;20215;-59
2024/01/30 07:10:44;;;;;;;9.03;7.80;;;;;;;1.10;100.00;98170.16;5113094;28;20199;-59
2024/01/30 07:13:12;;;;;;;9.70;8.10;;;;;;;1.18;100.00;98160.34;5112766;28;20668;-60
2024/01/30 07:15:39;;;;;;;11.03;7.83;;;;;;;1.21;100.00;98162.84;5113387;28;20205;-59
2024/01/30 07:18:07;;;;;;;8.73;7.80;;;;;;;1.23;100.00;98161.06;5113826;28;20203;-59
2024/01/30 07:20:35;;;;;;;9.40;7.63;;;;;;;1.22;100.00;98165.41;5113332;28;20212;-58
2024/01/30 07:23:03;;;;;;;10.00;8.20;;;;;;;1.19;100.00;98160.28;5113517;28;20201;-59
2024/01/30 07:25:30;;;;;;;10.37;8.30;;;;;;;1.17;100.00;98158.66;5114364;28;20197;-60
2024/01/30 07:27:57;;;;;;;9.17;8.23;;;;;;;1.21;100.00;98162.84;5113565;28;20201;-59
2024/01/30 07:30:27;;;;;;;10.83;7.70;;;;;;;1.24;100.00;98160.16;5113280;28;20298;-60
2024/01/30 07:32:55;;;;;;;8.50;7.60;;;;;;;1.30;100.00;98162.56;5112643;28;20216;-59
2024/01/30 07:35:21;;;;;;;9.47;7.70;;;;;;;1.32;100.00;98174.63;5113663;28;20219;-59
2024/01/30 07:37:48;;;;;;;12.53;8.30;;;;;;;1.38;100.00;98174.41;5113799;28;20224;-60
2024/01/30 07:40:15;;;;;;;10.17;8.67;;;;;;;1.39;100.00;98180.50;5114004;28;20206;-59
2024/01/30 07:42:42;;;;;;;8.67;7.80;;;;;;;1.40;100.00;98179.59;5114261;28;20815;-59
2024/01/30 07:45:11;;;;;;;12.17;8.23;;;;;;;1.41;100.00;98181.31;5114192;28;20207;-59
2024/01/30 07:47:38;;;;;;;12.13;8.60;;;;;;;1.48;100.00;98178.47;5114372;28;20737;-59
2024/01/30 07:50:06;;;;;;;9.87;8.37;;;;;;;1.55;100.00;98184.31;5114757;28;21375;-61
2024/01/30 07:52:33;;;;;;;12.97;8.33;;;;;;;1.52;100.00;98178.34;5114773;28;20249;-59
2024/01/30 07:58:23;;;;;;;14.73;8.90;;;;;;;1.59;100.00;98179.84;5115300;28;20200;-59
2024/01/30 08:00:51;;;;;;;13.47;9.00;;;;;;;1.54;100.00;98185.22;5114600;28;20258;-59
2024/01/30 08:03:19;;;;;;;12.50;8.90;;;;;;;1.59;100.00;98185.94;5114123;28;20189;-59
2024/01/30 08:05:45;;;;;;;12.13;8.13;;;;;;;1.63;100.00;98192.72;5113546;28;20634;-58
2024/01/30 08:08:12;;;;;;;12.00;8.43;;;;;;;1.67;100.00;98181.28;5113391;28;20933;-59
2024/01/30 08:10:40;;;;;;;10.87;8.23;;;;;;;1.71;100.00;98188.13;5113065;28;20205;-59
2024/01/30 08:13:08;;;;;;;10.00;8.47;;;;;;;1.76;100.00;98187.97;5111949;28;20239;-59
2024/01/30 08:15:35;;;;;;;10.20;8.50;;;;;;;1.82;100.00;98200.78;5114744;28;20196;-59
2024/01/30 08:18:01;;;;;;;9.30;8.30;;;;;;;1.90;100.00;98198.78;5137134;28;20197;-59
2024/01/30 08:20:29;;;;;;;11.07;8.33;;;;;;;1.96;100.00;98195.97;5134008;28;20216;-59
2024/01/30 08:22:57;;;;;;;10.87;9.40;;;;;;;1.99;100.00;98191.50;5135018;28;20252;-58
2024/01/30 08:25:24;;;;;;;9.20;7.93;;;;;;;2.03;100.00;98192.22;5130976;28;20327;-59
2024/01/30 08:27:50;;;;;;;10.67;8.40;;;;;;;2.07;100.00;98200.81;5113848;28;20262;-58
2024/01/30 08:30:17;;;;;;;9.73;8.80;;;;;;;2.12;100.00;98197.16;5113708;28;20189;-58
2024/01/30 08:32:44;;;;;;;12.40;8.90;;;;;;;2.19;100.00;98197.78;5113153;28;20225;-57
2024/01/30 08:35:13;;;;;;;11.03;9.00;;;;;;;2.30;100.00;98198.25;5113309;28;20209;-58
2024/01/30 08:37:41;;;;;;;9.77;8.77;;;;;;;2.38;100.00;98199.66;5114489;28;20205;-59
2024/01/30 08:40:09;;;;;;;11.30;9.10;;;;;;;2.40;100.00;98197.88;5114497;28;20205;-58
2024/01/30 08:42:35;;;;;;;10.60;9.07;;;;;;;2.49;100.00;98191.44;5114255;28;20231;-59
2024/01/30 08:45:04;;;;;;;13.47;9.17;;;;;;;2.50;100.00;98193.16;5112207;28;20210;-58
2024/01/30 08:47:30;;;;;;;11.83;8.67;;;;;;;2.60;100.00;98188.44;5111867;28;20205;-59
2024/01/30 08:49:57;;;;;;;10.17;8.80;;;;;;;2.71;100.00;98192.38;5111482;28;20663;-59
2024/01/30 08:52:24;;;;;;;10.53;9.33;;;;;;;2.72;100.00;98188.84;5111806;28;20211;-59
2024/01/30 08:54:55;;;;;;;12.97;9.20;;;;;;;2.82;100.00;98190.22;5111376;28;20331;-59
2024/01/30 08:57:21;;;;;;;10.17;9.07;;;;;;;2.90;100.00;98196.00;5111665;28;20193;-58
2024/01/30 08:59:48;;;;;;;11.27;10.07;;;;;;;2.99;100.00;98187.81;5112106;28;20296;-59
2024/01/30 09:02:16;;;;;;;13.07;10.03;;;;;;;3.04;100.00;98190.25;5071214;28;20588;-57
2024/01/30 09:04:45;;;;;;;10.97;9.80;;;;;;;3.05;100.00;98189.31;5071646;28;20203;-59
2024/01/30 09:07:13;;;;;;;12.77;9.33;;;;;;;3.02;100.00;98192.06;5071246;28;20194;-59
2024/01/30 09:09:40;;;;;;;12.20;10.23;;;;;;;3.16;100.00;98194.13;5070706;28;20202;-59
2024/01/30 09:12:11;;;;;;;9.73;8.83;;;;;;;3.22;100.00;98189.53;5070562;28;20287;-59
2024/01/30 09:14:38;;;;;;;10.17;9.13;;;;;;;3.43;100.00;98187.81;5071123;28;20218;-58
2024/01/30 09:17:05;;;;;;;10.63;9.53;;;;;;;3.65;100.00;98190.44;5071266;28;20206;-59
2024/01/30 09:19:31;;;;;;;11.50;9.37;;;;;;;4.06;100.00;98183.44;5071761;28;20199;-59
2024/01/30 09:21:58;;;;;;;11.20;9.53;;;;;;;4.53;100.00;98191.84;5071508;28;20212;-59
2024/01/30 09:24:25;;;;;;;10.60;9.60;;;;;;;4.97;100.00;98190.69;5070484;28;20202;-59
2024/01/30 09:26:52;;;;;;;11.10;9.37;;;;;;;5.31;100.00;98190.81;5069771;28;20516;-59
2024/01/30 09:29:20;;;;;;;12.50;9.50;;;;;;;5.68;100.00;98195.13;5070923;28;20202;-59
2024/01/30 09:31:47;;;;;;;11.03;8.93;;;;;;;6.03;100.00;98197.78;5071758;28;20207;-58
2024/01/30 09:34:14;;;;;;;11.87;8.70;;;;;;;6.31;100.00;98200.72;5071098;28;20233;-58
2024/01/30 09:36:40;;;;;;;9.83;8.43;;;;;;;6.47;100.00;98197.22;5070830;28;20195;-59
2024/01/30 09:39:07;;;;;;;10.63;8.97;;;;;;;6.82;100.00;98203.25;5071097;28;20216;-58
2024/01/30 09:41:34;;;;;;;10.00;8.70;;;;;;;7.01;100.00;98196.06;5070531;28;20237;-59
2024/01/30 09:44:03;;;;;;;10.33;8.33;;;;;;;7.39;100.00;98195.75;5070864;28;20221;-59
2024/01/30 09:46:33;;;;;;;12.73;9.30;;;;;;;8.06;99.20;98195.38;5070328;28;20654;-59
2024/01/30 09:48:59;;;;;;;11.03;8.33;;;;;;;7.99;99.26;98197.53;5070236;28;20206;-59
2024/01/30 09:51:29;;;;;;;11.50;8.60;;;;;;;8.04;100.00;98196.41;5070812;28;20542;-59
2024/01/30 09:53:56;;;;;;;12.13;8.73;;;;;;;8.41;98.05;98202.06;5069659;28;20689;-59
2024/01/30 09:56:23;;;;;;;13.87;8.67;;;;;;;8.44;95.11;98190.50;5070420;28;20205;-60
2024/01/30 09:58:50;;;;;;;12.93;8.43;;;;;;;8.56;95.69;98200.31;5070766;28;20207;-60
2024/01/30 10:01:18;;;;;;;13.50;9.33;;;;;;;8.59;96.70;98200.13;5094540;28;20692;-59
2024/01/30 10:03:46;;;;;;;14.83;8.63;;;;;;;9.13;95.01;98205.59;5110709;28;20201;-60
2024/01/30 10:06:13;;;;;;;14.20;8.60;;;;;;;9.06;93.45;98204.28;5110487;28;20280;-60
2024/01/30 10:08:40;;;;;;;10.40;8.20;;;;;;;9.14;91.46;98202.00;5111142;28;20203;-60
2024/01/30 10:11:06;;;;;;;10.17;7.37;;;;;;;9.31;93.26;98212.34;5109857;28;20207;-59
2024/01/30 10:13:33;;;;;;;10.80;7.83;;;;;;;9.48;92.46;98204.19;5115510;28;21396;-58
2024/01/30 10:16:02;;;;;;;9.17;8.27;;;;;;;9.79;90.92;98201.25;5114506;28;20716;-60
2024/01/30 10:18:31;;;;;;;10.10;8.60;;;;;;;9.48;88.42;98194.50;5111834;28;20224;-60
2024/01/30 10:20:59;;;;;;;12.43;8.23;;;;;;;9.90;87.84;98193.47;5110834;28;20209;-59
2024/01/30 10:23:26;;;;;;;10.47;8.17;;;;;;;10.51;85.26;98194.69;5111076;28;20201;-60
2024/01/30 10:25:53;;;;;;;9.70;8.27;;;;;;;10.26;84.85;98195.50;5134957;28;20217;-59
2024/01/30 10:28:21;;;;;;;14.57;8.38;;;;;;;10.10;83.36;98186.00;5132227;28;20173;-60
2024/01/30 10:30:58;;;;;;;11.82;9.07;;;;;;;10.26;83.10;98181.44;5132334;28;20235;-61
2024/01/30 10:33:25;;;;;;;9.90;8.23;;;;;;;10.23;83.48;98184.28;5132313;28;20217;-60
2024/01/30 10:35:51;;;;;;;8.63;7.72;;;;;;;10.56;84.08;98184.63;5133813;28;20273;-59
2024/01/30 10:38:21;;;;;;;8.95;8.05;;;;;;;10.73;82.30;98188.78;5134996;28;20221;-59
2024/01/30 10:40:49;;;;;;;12.50;8.25;;;;;;;11.53;77.73;98183.00;5115936;28;20193;-60
2024/01/30 10:43:16;;;;;;;10.80;8.50;;;;;;;11.09;79.49;98175.59;5113950;28;20219;-60
2024/01/30 10:45:46;;;;;;;12.48;7.90;;;;;;;11.57;76.95;98175.69;5114411;28;20273;-61
2024/01/30 10:48:13;;;;;;;9.40;8.50;;;;;;;11.98;74.05;98166.38;5114100;28;20197;-59
2024/01/30 10:50:41;;;;;;;9.07;7.63;;;;;;;11.89;74.57;98164.44;5114394;28;20186;-60
2024/01/30 10:53:10;;;;;;;10.27;8.15;;;;;;;11.33;76.50;98159.78;5114490;28;20231;-60
2024/01/30 10:55:38;;;;;;;9.00;8.10;;;;;;;11.36;78.76;98156.91;5113690;28;20645;-60
2024/01/30 10:58:05;;;;;;;8.73;7.45;;;;;;;11.27;77.22;98160.19;5114071;28;20633;-60
2024/01/30 11:00:34;;;;;;;9.50;7.35;;;;;;;11.07;80.03;98155.47;5113870;28;20248;-60
2024/01/30 11:03:00;;;;;;;10.75;8.00;;;;;;;10.95;78.87;98149.25;5114565;27;20292;-59
2024/01/30 11:05:29;;;;;;;12.35;8.82;;;;;;;11.07;79.68;98150.19;5113945;28;20211;-60
2024/01/30 11:07:55;;;;;;;10.25;7.75;;;;;;;11.34;81.50;98140.25;5114494;28;20205;-60
2024/01/30 11:10:22;;;;;;;9.63;8.05;;;;;;;11.81;77.82;98145.59;5113502;28;20211;-59
2024/01/30 11:12:51;;;;;;;8.68;7.88;;;;;;;11.76;78.67;98147.72;5113298;28;20201;-60
2024/01/30 11:15:18;;;;;;;8.50;7.63;;;;;;;11.62;78.83;98149.69;5113542;28;20277;-60
2024/01/30 11:17:46;;;;;;;11.25;8.07;;;;;;;11.22;81.57;98143.81;5114478;28;20224;-59
2024/01/30 11:20:14;;;;;;;8.80;7.95;;;;;;;11.12;80.65;98132.19;5114019;28;20284;-60
2024/01/30 11:22:43;;;;;;;12.00;8.13;;;;;;;11.19;76.28;98138.72;5113942;28;20201;-58
2024/01/30 11:25:12;;;;;;;12.10;8.15;;;;;;;11.05;77.88;98128.28;5114075;28;20362;-60
2024/01/30 11:27:39;;;;;;;8.48;7.40;;;;;;;11.22;80.15;98123.47;5115784;28;20205;-59
2024/01/30 11:30:09;;;;;;;14.20;8.05;;;;;;;11.32;78.13;98123.63;5113662;28;20209;-60
2024/01/30 11:32:36;;;;;;;12.45;7.35;;;;;;;11.43;75.56;98129.84;5113654;28;20205;-60
2024/01/30 11:35:08;;;;;;;10.23;8.02;;;;;;;11.75;78.13;98127.50;5113029;28;20217;-59